sensor_id;sensor_type;location;lat;lon;timestamp;pressure;altitude;pressure_sealevel;temperature;humidity
59073;BME280;44859;51.934;15.554;2024-03-07T00:00:12;100699.23;;;1.66;100.00
59073;BME280;44859;51.934;15.554;2024-03-07T00:05:39;100697.84;;;1.58;100.00
59073;BME280;44859;51.934;15.554;2024-03-07T00:10:41;100697.13;;;1.53;100.00
59073;BME280;44859;51.934;15.554;2024-03-07T00:15:47;100699.88;;;1.45;100.00
59073;BME280;44859;51.934;15.554;2024-03-07T00:20:49;100700.34;;;1.31;100.00
59073;BME280;44859;51.934;15.554;2024-03-07T00:25:51;100698.76;;;1.23;100.00
59073;BME280;44859;51.934;15.554;2024-03-07T00:30:53;100699.25;;;1.17;100.00
59073;BME280;44859;51.934;15.554;2024-03-07T00:35:57;100699.17;;;1.03;100.00
59073;BME280;44859;51.934;15.554;2024-03-07T00:40:59;100694.44;;;0.88;100.00
59073;BME280;44859;51.934;15.554;2024-03-07T00:46:01;100693.16;;;0.75;100.00
59073;BME280;44859;51.934;15.554;2024-03-07T00:51:04;100693.63;;;0.66;100.00
59073;BME280;44859;51.934;15.554;2024-03-07T00:56:06;100690.63;;;0.58;100.00
59073;BME280;44859;51.934;15.554;2024-03-07T01:01:09;100688.84;;;0.47;100.00
59073;BME280;44859;51.934;15.554;2024-03-07T01:06:13;100688.77;;;0.39;100.00
59073;BME280;44859;51.934;15.554;2024-03-07T01:11:16;100684.04;;;0.29;100.00
59073;BME280;44859;51.934;15.554;2024-03-07T01:16:19;100682.77;;;0.20;100.00
59073;BME280;44859;51.934;15.554;2024-03-07T01:21:30;100684.75;;;0.10;100.00
59073;BME280;44859;51.934;15.554;2024-03-07T01:26:52;100686.95;;;0.06;100.00
59073;BME280;44859;51.934;15.554;2024-03-07T01:32:04;100691.77;;;0.03;100.00
59073;BME280;44859;51.934;15.554;2024-03-07T01:37:06;100692.05;;;-0.07;100.00
59073;BME280;44859;51.934;15.554;2024-03-07T01:42:10;100692.34;;;-0.11;100.00
59073;BME280;44859;51.934;15.554;2024-03-07T01:47:13;100695.77;;;-0.15;100.00
59073;BME280;44859;51.934;15.554;2024-03-07T01:52:18;100694.04;;;-0.14;100.00
59073;BME280;44859;51.934;15.554;2024-03-07T01:57:23;100702.98;;;-0.17;100.00
59073;BME280;44859;51.934;15.554;2024-03-07T02:02:26;100703.89;;;-0.14;100.00
59073;BME280;44859;51.934;15.554;2024-03-07T02:07:28;100703.90;;;-0.12;100.00
59073;BME280;44859;51.934;15.554;2024-03-07T02:12:32;100702.52;;;-0.12;100.00
59073;BME280;44859;51.934;15.554;2024-03-07T02:17:38;100697.10;;;-0.18;100.00
59073;BME280;44859;51.934;15.554;2024-03-07T02:22:41;100693.41;;;-0.26;100.00
59073;BME280;44859;51.934;15.554;2024-03-07T02:27:47;100691.80;;;-0.32;100.00
59073;BME280;44859;51.934;15.554;2024-03-07T02:32:49;100686.04;;;-0.38;100.00
59073;BME280;44859;51.934;15.554;2024-03-07T02:37:57;100690.45;;;-0.44;100.00
59073;BME280;44859;51.934;15.554;2024-03-07T02:42:59;100692.45;;;-0.52;100.00
59073;BME280;44859;51.934;15.554;2024-03-07T02:48:02;100690.29;;;-0.60;100.00
59073;BME280;44859;51.934;15.554;2024-03-07T02:53:04;100689.14;;;-0.70;100.00
59073;BME280;44859;51.934;15.554;2024-03-07T02:58:06;100689.24;;;-0.76;100.00
59073;BME280;44859;51.934;15.554;2024-03-07T03:03:15;100686.60;;;-0.81;100.00
59073;BME280;44859;51.934;15.554;2024-03-07T03:08:17;100691.86;;;-0.87;100.00
59073;BME280;44859;51.934;15.554;2024-03-07T03:13:19;100689.58;;;-0.90;100.00
59073;BME280;44859;51.934;15.554;2024-03-07T03:18:24;100692.64;;;-0.94;100.00
59073;BME280;44859;51.934;15.554;2024-03-07T03:23:26;100689.92;;;-1.05;100.00
59073;BME280;44859;51.934;15.554;2024-03-07T03:28:31;100690.00;;;-1.13;100.00
59073;BME280;44859;51.934;15.554;2024-03-07T03:33:33;100692.89;;;-1.17;100.00
59073;BME280;44859;51.934;15.554;2024-03-07T03:38:35;100687.52;;;-1.17;100.00
59073;BME280;44859;51.934;15.554;2024-03-07T03:43:38;100688.09;;;-1.13;100.00
59073;BME280;44859;51.934;15.554;2024-03-07T03:48:42;100687.11;;;-1.10;100.00
59073;BME280;44859;51.934;15.554;2024-03-07T03:53:47;100685.38;;;-1.11;100.00
59073;BME280;44859;51.934;15.554;2024-03-07T03:58:49;100687.89;;;-1.16;100.00
59073;BME280;44859;51.934;15.554;2024-03-07T04:03:51;100689.14;;;-1.25;100.00
59073;BME280;44859;51.934;15.554;2024-03-07T04:08:53;100686.27;;;-1.33;100.00
59073;BME280;44859;51.934;15.554;2024-03-07T04:13:57;100689.67;;;-1.35;100.00
59073;BME280;44859;51.934;15.554;2024-03-07T04:18:59;100688.25;;;-1.39;100.00
59073;BME280;44859;51.934;15.554;2024-03-07T04:24:01;100687.13;;;-1.46;100.00
59073;BME280;44859;51.934;15.554;2024-03-07T04:29:04;100686.39;;;-1.49;100.00
59073;BME280;44859;51.934;15.554;2024-03-07T04:34:06;100691.16;;;-1.53;100.00
59073;BME280;44859;51.934;15.554;2024-03-07T04:39:08;100688.71;;;-1.54;100.00
59073;BME280;44859;51.934;15.554;2024-03-07T04:44:21;100693.02;;;-1.55;100.00
59073;BME280;44859;51.934;15.554;2024-03-07T04:49:28;100689.70;;;-1.58;100.00
59073;BME280;44859;51.934;15.554;2024-03-07T04:54:31;100690.04;;;-1.59;100.00
59073;BME280;44859;51.934;15.554;2024-03-07T04:59:36;100694.15;;;-1.60;100.00
59073;BME280;44859;51.934;15.554;2024-03-07T05:04:38;100692.64;;;-1.57;100.00
59073;BME280;44859;51.934;15.554;2024-03-07T05:09:40;100698.09;;;-1.49;100.00
59073;BME280;44859;51.934;15.554;2024-03-07T05:14:42;100694.77;;;-1.40;100.00
59073;BME280;44859;51.934;15.554;2024-03-07T05:19:44;100701.59;;;-1.34;100.00
59073;BME280;44859;51.934;15.554;2024-03-07T05:24:49;100699.64;;;-1.25;100.00
59073;BME280;44859;51.934;15.554;2024-03-07T05:30:00;100703.23;;;-1.15;100.00
59073;BME280;44859;51.934;15.554;2024-03-07T05:35:03;100709.70;;;-1.09;100.00
59073;BME280;44859;51.934;15.554;2024-03-07T05:40:06;100712.18;;;-1.03;100.00
59073;BME280;44859;51.934;15.554;2024-03-07T05:45:09;100713.55;;;-1.05;100.00
59073;BME280;44859;51.934;15.554;2024-03-07T05:50:12;100718.70;;;-1.06;100.00
59073;BME280;44859;51.934;15.554;2024-03-07T05:55:15;100721.87;;;-1.01;100.00
59073;BME280;44859;51.934;15.554;2024-03-07T06:00:18;100728.78;;;-1.00;100.00
59073;BME280;44859;51.934;15.554;2024-03-07T06:05:28;100732.30;;;-0.95;100.00
59073;BME280;44859;51.934;15.554;2024-03-07T06:10:30;100733.04;;;-0.92;100.00
59073;BME280;44859;51.934;15.554;2024-03-07T06:15:32;100733.08;;;-0.87;100.00
59073;BME280;44859;51.934;15.554;2024-03-07T06:20:34;100739.47;;;-0.87;100.00
59073;BME280;44859;51.934;15.554;2024-03-07T06:25:37;100744.59;;;-0.79;100.00
59073;BME280;44859;51.934;15.554;2024-03-07T06:30:49;100746.42;;;-0.70;100.00
59073;BME280;44859;51.934;15.554;2024-03-07T06:36:01;100747.50;;;-0.66;100.00
59073;BME280;44859;51.934;15.554;2024-03-07T06:41:04;100755.44;;;-0.67;100.00
59073;BME280;44859;51.934;15.554;2024-03-07T06:46:07;100755.49;;;-0.62;100.00
59073;BME280;44859;51.934;15.554;2024-03-07T06:51:20;100757.05;;;-0.62;100.00
59073;BME280;44859;51.934;15.554;2024-03-07T06:56:22;100758.65;;;-0.58;100.00
59073;BME280;44859;51.934;15.554;2024-03-07T07:01:26;100766.61;;;-0.56;100.00
59073;BME280;44859;51.934;15.554;2024-03-07T07:06:28;100766.02;;;-0.47;100.00
59073;BME280;44859;51.934;15.554;2024-03-07T07:11:30;100773.60;;;-0.33;100.00
59073;BME280;44859;51.934;15.554;2024-03-07T07:16:37;100776.02;;;-0.17;100.00
59073;BME280;44859;51.934;15.554;2024-03-07T07:21:42;100776.63;;;0.09;100.00
59073;BME280;44859;51.934;15.554;2024-03-07T07:26:45;100777.38;;;0.32;100.00
59073;BME280;44859;51.934;15.554;2024-03-07T07:31:47;100781.75;;;0.38;100.00
59073;BME280;44859;51.934;15.554;2024-03-07T07:36:50;100776.91;;;0.38;100.00
59073;BME280;44859;51.934;15.554;2024-03-07T07:41:52;100777.41;;;0.57;100.00
59073;BME280;44859;51.934;15.554;2024-03-07T07:46:54;100774.67;;;0.86;100.00
59073;BME280;44859;51.934;15.554;2024-03-07T07:51:56;100776.91;;;1.12;100.00
59073;BME280;44859;51.934;15.554;2024-03-07T07:56:58;100774.02;;;1.20;100.00
59073;BME280;44859;51.934;15.554;2024-03-07T08:02:05;100774.08;;;1.33;100.00
59073;BME280;44859;51.934;15.554;2024-03-07T08:07:07;100772.27;;;1.57;100.00
59073;BME280;44859;51.934;15.554;2024-03-07T08:12:10;100775.23;;;1.60;100.00
59073;BME280;44859;51.934;15.554;2024-03-07T08:17:14;100776.09;;;1.61;100.00
59073;BME280;44859;51.934;15.554;2024-03-07T08:22:16;100779.59;;;1.67;100.00
59073;BME280;44859;51.934;15.554;2024-03-07T08:27:18;100782.05;;;1.78;100.00
59073;BME280;44859;51.934;15.554;2024-03-07T08:32:20;100780.80;;;1.66;100.00
59073;BME280;44859;51.934;15.554;2024-03-07T08:37:25;100782.33;;;1.59;100.00
59073;BME280;44859;51.934;15.554;2024-03-07T08:42:27;100779.23;;;1.66;100.00
59073;BME280;44859;51.934;15.554;2024-03-07T08:47:34;100782.02;;;1.70;100.00
59073;BME280;44859;51.934;15.554;2024-03-07T08:52:37;100781.33;;;1.71;100.00
59073;BME280;44859;51.934;15.554;2024-03-07T08:57:41;100784.48;;;1.79;100.00
59073;BME280;44859;51.934;15.554;2024-03-07T09:02:46;100776.88;;;1.87;100.00
59073;BME280;44859;51.934;15.554;2024-03-07T09:07:49;100778.83;;;2.08;100.00
59073;BME280;44859;51.934;15.554;2024-03-07T09:12:51;100774.87;;;2.30;99.07
59073;BME280;44859;51.934;15.554;2024-03-07T09:18:02;100774.89;;;2.52;98.47
59073;BME280;44859;51.934;15.554;2024-03-07T09:23:05;100771.92;;;2.76;96.13
59073;BME280;44859;51.934;15.554;2024-03-07T09:28:07;100773.64;;;2.88;95.30
59073;BME280;44859;51.934;15.554;2024-03-07T09:33:09;100773.28;;;2.96;94.36
59073;BME280;44859;51.934;15.554;2024-03-07T09:38:12;100771.18;;;3.10;93.35
59073;BME280;44859;51.934;15.554;2024-03-07T09:43:15;100767.84;;;3.17;91.51
59073;BME280;44859;51.934;15.554;2024-03-07T09:48:19;100775.13;;;3.23;90.41
59073;BME280;44859;51.934;15.554;2024-03-07T09:53:24;100776.64;;;3.38;89.06
59073;BME280;44859;51.934;15.554;2024-03-07T09:58:29;100777.67;;;3.41;87.28
59073;BME280;44859;51.934;15.554;2024-03-07T10:03:34;100774.34;;;3.50;84.73
59073;BME280;44859;51.934;15.554;2024-03-07T10:08:42;100770.02;;;3.80;83.69
59073;BME280;44859;51.934;15.554;2024-03-07T10:13:44;100766.16;;;3.89;82.61
59073;BME280;44859;51.934;15.554;2024-03-07T10:18:50;100764.31;;;4.06;80.84
59073;BME280;44859;51.934;15.554;2024-03-07T10:24:25;100764.80;;;4.10;78.32
59073;BME280;44859;51.934;15.554;2024-03-07T10:29:26;100763.44;;;4.31;77.87
59073;BME280;44859;51.934;15.554;2024-03-07T10:34:33;100757.76;;;4.24;74.11
59073;BME280;44859;51.934;15.554;2024-03-07T10:39:36;100760.80;;;4.12;72.46
59073;BME280;44859;51.934;15.554;2024-03-07T10:44:45;100758.27;;;4.00;72.31
59073;BME280;44859;51.934;15.554;2024-03-07T10:50:18;100750.55;;;3.81;71.30
59073;BME280;44859;51.934;15.554;2024-03-07T10:55:41;100742.05;;;4.31;69.69
59073;BME280;44859;51.934;15.554;2024-03-07T11:00:55;100738.06;;;4.70;69.24
59073;BME280;44859;51.934;15.554;2024-03-07T11:06:00;100733.69;;;5.21;69.11
59073;BME280;44859;51.934;15.554;2024-03-07T11:11:08;100737.08;;;5.45;65.50
59073;BME280;44859;51.934;15.554;2024-03-07T11:16:11;100732.23;;;5.43;64.12
59073;BME280;44859;51.934;15.554;2024-03-07T11:21:42;100729.75;;;5.32;61.79
59073;BME280;44859;51.934;15.554;2024-03-07T11:26:47;100732.35;;;5.02;62.18
59073;BME280;44859;51.934;15.554;2024-03-07T11:31:53;100729.52;;;5.22;62.69
59073;BME280;44859;51.934;15.554;2024-03-07T11:36:57;100724.11;;;5.50;61.72
59073;BME280;44859;51.934;15.554;2024-03-07T11:42:01;100720.71;;;5.57;60.25
59073;BME280;44859;51.934;15.554;2024-03-07T11:47:11;100717.05;;;5.59;61.36
59073;BME280;44859;51.934;15.554;2024-03-07T11:52:17;100713.77;;;5.67;60.10
59073;BME280;44859;51.934;15.554;2024-03-07T11:57:20;100712.54;;;5.56;60.47
59073;BME280;44859;51.934;15.554;2024-03-07T12:02:28;100707.14;;;5.94;57.98
59073;BME280;44859;51.934;15.554;2024-03-07T12:07:31;100704.69;;;5.93;59.41
59073;BME280;44859;51.934;15.554;2024-03-07T12:12:38;100701.69;;;5.72;58.80
59073;BME280;44859;51.934;15.554;2024-03-07T12:17:42;100697.91;;;5.68;57.80
59073;BME280;44859;51.934;15.554;2024-03-07T12:22:55;100691.15;;;5.78;57.98
59073;BME280;44859;51.934;15.554;2024-03-07T12:28:09;100687.73;;;5.86;57.16
59073;BME280;44859;51.934;15.554;2024-03-07T12:33:13;100680.92;;;6.21;56.48
59073;BME280;44859;51.934;15.554;2024-03-07T12:38:22;100681.69;;;6.06;55.82
59073;BME280;44859;51.934;15.554;2024-03-07T12:43:31;100676.59;;;6.20;55.91
59073;BME280;44859;51.934;15.554;2024-03-07T12:48:33;100682.95;;;6.13;53.20
59073;BME280;44859;51.934;15.554;2024-03-07T12:53:37;100676.75;;;6.19;54.38
59073;BME280;44859;51.934;15.554;2024-03-07T12:58:47;100670.76;;;6.63;54.14
59073;BME280;44859;51.934;15.554;2024-03-07T13:03:51;100662.03;;;6.64;53.13
59073;BME280;44859;51.934;15.554;2024-03-07T13:08:55;100667.34;;;6.49;53.16
59073;BME280;44859;51.934;15.554;2024-03-07T13:14:00;100660.70;;;6.50;51.96
59073;BME280;44859;51.934;15.554;2024-03-07T13:19:02;100659.64;;;6.51;52.45
59073;BME280;44859;51.934;15.554;2024-03-07T13:24:14;100658.09;;;6.40;51.29
59073;BME280;44859;51.934;15.554;2024-03-07T13:29:16;100659.92;;;6.55;51.91
59073;BME280;44859;51.934;15.554;2024-03-07T13:34:19;100654.73;;;6.71;51.79
59073;BME280;44859;51.934;15.554;2024-03-07T13:39:21;100656.04;;;6.85;50.75
59073;BME280;44859;51.934;15.554;2024-03-07T13:44:26;100654.34;;;6.64;49.22
59073;BME280;44859;51.934;15.554;2024-03-07T13:49:32;100659.55;;;6.26;50.97
59073;BME280;44859;51.934;15.554;2024-03-07T13:54:36;100649.64;;;6.81;51.23
59073;BME280;44859;51.934;15.554;2024-03-07T14:27:41;100649.73;;;6.78;49.17
59073;BME280;44859;51.934;15.554;2024-03-07T14:32:54;100647.65;;;6.76;48.93
59073;BME280;44859;51.934;15.554;2024-03-07T14:43:18;100636.66;;;7.02;48.38
59073;BME280;44859;51.934;15.554;2024-03-07T14:48:22;100641.85;;;6.96;48.94
59073;BME280;44859;51.934;15.554;2024-03-07T14:53:26;100636.27;;;6.87;48.70
59073;BME280;44859;51.934;15.554;2024-03-07T14:58:28;100635.42;;;7.03;48.59
59073;BME280;44859;51.934;15.554;2024-03-07T15:03:30;100629.39;;;7.07;48.10
59073;BME280;44859;51.934;15.554;2024-03-07T15:08:35;100629.55;;;7.00;48.65
59073;BME280;44859;51.934;15.554;2024-03-07T15:13:37;100629.66;;;7.11;48.93
59073;BME280;44859;51.934;15.554;2024-03-07T15:18:48;100627.33;;;7.31;48.24
59073;BME280;44859;51.934;15.554;2024-03-07T15:23:52;100621.55;;;7.06;48.03
59073;BME280;44859;51.934;15.554;2024-03-07T15:28:55;100623.46;;;6.35;48.54
59073;BME280;44859;51.934;15.554;2024-03-07T15:33:57;100624.48;;;5.83;48.95
59073;BME280;44859;51.934;15.554;2024-03-07T15:38:59;100627.70;;;5.43;50.21
59073;BME280;44859;51.934;15.554;2024-03-07T15:44:17;100625.27;;;5.05;50.22
59073;BME280;44859;51.934;15.554;2024-03-07T15:49:21;100624.84;;;4.81;50.91
59073;BME280;44859;51.934;15.554;2024-03-07T15:54:23;100628.23;;;4.58;51.49
59073;BME280;44859;51.934;15.554;2024-03-07T15:59:26;100627.42;;;4.51;52.06
59073;BME280;44859;51.934;15.554;2024-03-07T16:04:28;100627.98;;;4.49;52.86
59073;BME280;44859;51.934;15.554;2024-03-07T16:09:30;100630.43;;;4.47;53.51
59073;BME280;44859;51.934;15.554;2024-03-07T16:14:41;100626.89;;;4.36;53.90
59073;BME280;44859;51.934;15.554;2024-03-07T16:19:46;100621.73;;;4.29;54.37
59073;BME280;44859;51.934;15.554;2024-03-07T16:24:51;100623.57;;;4.20;55.04
59073;BME280;44859;51.934;15.554;2024-03-07T16:29:53;100629.40;;;4.10;55.60
59073;BME280;44859;51.934;15.554;2024-03-07T16:34:55;100628.30;;;3.94;56.24
59073;BME280;44859;51.934;15.554;2024-03-07T16:40:04;100632.72;;;3.86;56.86
59073;BME280;44859;51.934;15.554;2024-03-07T16:45:11;100627.58;;;3.76;57.48
59073;BME280;44859;51.934;15.554;2024-03-07T16:50:15;100629.41;;;3.64;57.79
59073;BME280;44859;51.934;15.554;2024-03-07T16:55:17;100632.23;;;3.55;58.21
59073;BME280;44859;51.934;15.554;2024-03-07T17:00:23;100635.27;;;3.44;58.81
59073;BME280;44859;51.934;15.554;2024-03-07T17:05:39;100637.24;;;3.31;59.28
59073;BME280;44859;51.934;15.554;2024-03-07T17:10:43;100639.91;;;3.20;59.91
59073;BME280;44859;51.934;15.554;2024-03-07T17:15:48;100642.39;;;3.12;60.52
59073;BME280;44859;51.934;15.554;2024-03-07T17:20:50;100641.04;;;3.01;60.72
59073;BME280;44859;51.934;15.554;2024-03-07T17:25:53;100645.05;;;2.95;61.25
59073;BME280;44859;51.934;15.554;2024-03-07T17:31:07;100647.69;;;2.87;61.84
59073;BME280;44859;51.934;15.554;2024-03-07T17:36:26;100647.54;;;2.78;62.10
59073;BME280;44859;51.934;15.554;2024-03-07T17:41:41;100646.68;;;2.73;62.51
59073;BME280;44859;51.934;15.554;2024-03-07T17:46:44;100646.89;;;2.64;63.14
59073;BME280;44859;51.934;15.554;2024-03-07T17:51:47;100647.11;;;2.51;63.43
59073;BME280;44859;51.934;15.554;2024-03-07T17:56:49;100649.02;;;2.45;64.05
59073;BME280;44859;51.934;15.554;2024-03-07T18:02:00;100648.13;;;2.47;64.40
59073;BME280;44859;51.934;15.554;2024-03-07T18:07:03;100641.73;;;2.46;64.61
59073;BME280;44859;51.934;15.554;2024-03-07T18:12:14;100645.55;;;2.43;64.83
59073;BME280;44859;51.934;15.554;2024-03-07T18:17:16;100644.69;;;2.39;64.97
59073;BME280;44859;51.934;15.554;2024-03-07T18:22:23;100648.85;;;2.27;65.75
59073;BME280;44859;51.934;15.554;2024-03-07T18:27:24;100653.03;;;2.00;66.81
59073;BME280;44859;51.934;15.554;2024-03-07T18:32:28;100659.42;;;1.75;67.69
59073;BME280;44859;51.934;15.554;2024-03-07T18:37:31;100662.84;;;1.50;68.46
59073;BME280;44859;51.934;15.554;2024-03-07T18:42:33;100659.80;;;1.17;69.64
59073;BME280;44859;51.934;15.554;2024-03-07T18:47:39;100654.70;;;0.93;70.42
59073;BME280;44859;51.934;15.554;2024-03-07T18:52:45;100650.50;;;0.85;71.11
59073;BME280;44859;51.934;15.554;2024-03-07T18:57:49;100650.81;;;0.78;71.71
59073;BME280;44859;51.934;15.554;2024-03-07T19:02:51;100651.16;;;0.78;72.23
59073;BME280;44859;51.934;15.554;2024-03-07T19:07:54;100649.22;;;0.71;72.96
59073;BME280;44859;51.934;15.554;2024-03-07T19:12:59;100649.64;;;0.84;72.81
59073;BME280;44859;51.934;15.554;2024-03-07T19:18:03;100649.91;;;1.08;72.51
59073;BME280;44859;51.934;15.554;2024-03-07T19:23:11;100653.42;;;1.23;72.19
59073;BME280;44859;51.934;15.554;2024-03-07T19:28:14;100651.89;;;1.33;72.01
59073;BME280;44859;51.934;15.554;2024-03-07T19:33:18;100655.56;;;1.46;71.47
59073;BME280;44859;51.934;15.554;2024-03-07T19:38:22;100654.71;;;1.58;71.23
59073;BME280;44859;51.934;15.554;2024-03-07T19:43:25;100654.20;;;1.62;70.81
59073;BME280;44859;51.934;15.554;2024-03-07T19:48:27;100653.68;;;1.63;70.79
59073;BME280;44859;51.934;15.554;2024-03-07T19:53:30;100652.83;;;1.59;70.79
59073;BME280;44859;51.934;15.554;2024-03-07T19:58:32;100651.24;;;1.51;70.78
59073;BME280;44859;51.934;15.554;2024-03-07T20:03:35;100651.58;;;1.45;71.08
59073;BME280;44859;51.934;15.554;2024-03-07T20:08:38;100647.92;;;1.36;71.05
59073;BME280;44859;51.934;15.554;2024-03-07T20:13:40;100649.29;;;1.28;71.69
59073;BME280;44859;51.934;15.554;2024-03-07T20:18:43;100650.33;;;1.27;71.58
59073;BME280;44859;51.934;15.554;2024-03-07T20:23:46;100644.79;;;1.27;71.61
59073;BME280;44859;51.934;15.554;2024-03-07T20:28:48;100640.28;;;1.25;71.77
59073;BME280;44859;51.934;15.554;2024-03-07T20:33:50;100636.13;;;1.25;71.93
59073;BME280;44859;51.934;15.554;2024-03-07T20:38:53;100643.05;;;1.27;72.05
59073;BME280;44859;51.934;15.554;2024-03-07T20:43:55;100639.23;;;1.22;72.32
59073;BME280;44859;51.934;15.554;2024-03-07T20:48:58;100640.77;;;1.18;72.33
59073;BME280;44859;51.934;15.554;2024-03-07T20:54:00;100638.33;;;1.13;72.50
59073;BME280;44859;51.934;15.554;2024-03-07T20:59:02;100636.94;;;1.09;72.86
59073;BME280;44859;51.934;15.554;2024-03-07T21:04:08;100637.79;;;1.02;73.06
59073;BME280;44859;51.934;15.554;2024-03-07T21:09:10;100636.88;;;0.93;73.41
59073;BME280;44859;51.934;15.554;2024-03-07T21:14:12;100633.88;;;0.82;73.56
59073;BME280;44859;51.934;15.554;2024-03-07T21:19:15;100636.27;;;0.76;74.14
59073;BME280;44859;51.934;15.554;2024-03-07T21:24:18;100632.11;;;0.75;74.45
59073;BME280;44859;51.934;15.554;2024-03-07T21:29:20;100630.40;;;0.78;74.61
59073;BME280;44859;51.934;15.554;2024-03-07T21:34:22;100621.41;;;0.78;74.93
59073;BME280;44859;51.934;15.554;2024-03-07T21:39:24;100620.36;;;0.74;75.01
59073;BME280;44859;51.934;15.554;2024-03-07T21:44:26;100622.93;;;0.69;75.55
59073;BME280;44859;51.934;15.554;2024-03-07T21:49:28;100623.91;;;0.59;75.78
59073;BME280;44859;51.934;15.554;2024-03-07T21:54:40;100618.75;;;0.31;76.24
59073;BME280;44859;51.934;15.554;2024-03-07T21:59:42;100615.64;;;0.06;76.79
59073;BME280;44859;51.934;15.554;2024-03-07T22:04:44;100616.66;;;-0.17;77.63
59073;BME280;44859;51.934;15.554;2024-03-07T22:09:55;100610.62;;;-0.38;78.22
59073;BME280;44859;51.934;15.554;2024-03-07T22:14:57;100610.55;;;-0.45;78.88
59073;BME280;44859;51.934;15.554;2024-03-07T22:20:00;100607.58;;;-0.49;79.44
59073;BME280;44859;51.934;15.554;2024-03-07T22:25:03;100604.95;;;-0.55;80.01
59073;BME280;44859;51.934;15.554;2024-03-07T22:30:08;100603.27;;;-0.66;80.27
59073;BME280;44859;51.934;15.554;2024-03-07T22:35:11;100604.56;;;-0.76;80.95
59073;BME280;44859;51.934;15.554;2024-03-07T22:40:13;100600.27;;;-0.74;81.49
59073;BME280;44859;51.934;15.554;2024-03-07T22:45:22;100595.38;;;-0.62;81.64
59073;BME280;44859;51.934;15.554;2024-03-07T22:50:25;100593.54;;;-0.57;82.17
59073;BME280;44859;51.934;15.554;2024-03-07T22:55:32;100590.83;;;-0.51;82.43
59073;BME280;44859;51.934;15.554;2024-03-07T23:00:35;100581.99;;;-0.34;82.35
59073;BME280;44859;51.934;15.554;2024-03-07T23:05:46;100580.55;;;-0.20;82.31
59073;BME280;44859;51.934;15.554;2024-03-07T23:10:48;100573.07;;;-0.07;81.70
59073;BME280;44859;51.934;15.554;2024-03-07T23:15:51;100571.79;;;-0.15;81.59
59073;BME280;44859;51.934;15.554;2024-03-07T23:20:53;100564.82;;;-0.24;81.63
59073;BME280;44859;51.934;15.554;2024-03-07T23:25:55;100560.91;;;-0.16;81.61
59073;BME280;44859;51.934;15.554;2024-03-07T23:30:57;100554.94;;;-0.07;81.35
59073;BME280;44859;51.934;15.554;2024-03-07T23:35:59;100557.42;;;0.06;81.30
59073;BME280;44859;51.934;15.554;2024-03-07T23:41:02;100555.04;;;0.10;80.96
59073;BME280;44859;51.934;15.554;2024-03-07T23:46:07;100553.81;;;0.07;80.79
59073;BME280;44859;51.934;15.554;2024-03-07T23:51:09;100554.39;;;-0.10;81.15
59073;BME280;44859;51.934;15.554;2024-03-07T23:56:13;100558.27;;;-0.43;81.39
